METAR AND TAF INFORMATION
METAR FOR WIII
ADDS - METARS form results

(2107 UTC 21 July 2018)
Data provider http://aviationweather.gov/adds/metars/
 
METAR text: WIII 212100Z VRB02KT 2100 BR FEW020 27/23 Q1012 NOSIG
Conditions at: WIII (SOEKARNO-HATTA I, ID) observed 2100 UTC 21 July 2018
Temperature: 27.0°C (81°F)
Dewpoint: 23.0°C (73°F) [RH = 79%]
Pressure (altimeter): 29.88 inches Hg (1012.0 mb)
Winds: variable direction winds at 2 MPH (2 knots; 1.0 m/s)
Visibility: 1.30 miles (2.09 km)
Ceiling: at least 12,000 feet AGL
Clouds: few clouds at 2000 feet AGL
Weather: BR  (mist)

METAR text: WIII 212030Z VRB02KT 2400 BR FEW020 27/23 Q1012 NOSIG
Conditions at: WIII (SOEKARNO-HATTA I, ID) observed 2030 UTC 21 July 2018
Temperature: 27.0°C (81°F)
Dewpoint: 23.0°C (73°F) [RH = 79%]
Pressure (altimeter): 29.88 inches Hg (1012.0 mb)
Winds: variable direction winds at 2 MPH (2 knots; 1.0 m/s)
Visibility: 1.49 miles (2.40 km)
Ceiling: at least 12,000 feet AGL
Clouds: few clouds at 2000 feet AGL
Weather: BR  (mist)

Forecast for: WIII (SOEKARNO-HATTA I, ID)
Text: TAF WIII 211700Z 2118/2224 VRB02KT 4000 HZ SCT020
Forecast period: 1800 UTC 21 July 2018 to 0200 UTC 22 July 2018
Forecast type: FROM: standard forecast or significant change
Winds: variable direction winds at 2 MPH (2 knots; 1.0 m/s)
Visibility: 2.49 miles (4.01 km)
Clouds: scattered clouds at 2000 feet AGL
Weather: HZ  (haze)
Text: BECMG 2202/2204 05010KT 7000 NSW
Forecast period: 0200 UTC 22 July 2018 to 0000 UTC 23 July 2018
Forecast type: BECOMING: Conditions expected to become as follows by 0400 UTC 22 July 2018
Winds: from the NE (50 degrees) at 12 MPH (10 knots; 5.2 m/s)
Visibility: 4 miles (7 km)
Clouds: scattered clouds at 2000 feet AGL
Weather: NSW  (no significant weather)

 AIRPORT MAP

 RUNWAY INFORMATION
Runway 07L Runway length 11812 ft Runway width 197 ft
Runway elevation 29 ft Runway displaced threshold 0 ft Runway heading 68
Runway 25R Runway length 11812 ft Runway width 197 ft
Runway elevation 21 ft Runway displaced threshold 0 ft Runway heading 248
Runway 07R Runway length 12008 ft Runway width 197 ft
Runway elevation 34 ft Runway displaced threshold 0 ft Runway heading 68
Runway 25L Runway length 12008 ft Runway width 197 ft
Runway elevation 27 ft Runway displaced threshold 0 ft Runway heading 248

 AIRPORT FREQUENCIES
Type APP Name JAKARTA AP Frequency 119.75 MHZ
Type ARR Name JAKARTA AR Frequency 125.45 MHZ
Type ATIS Name ATIS Frequency 126.85 MHZ
Type CLD Name CLNC DEL Frequency 121.95 MHZ
Type FSS Name JAKARTA CE Frequency 129.7 MHZ
Type GND Name GND Frequency 121.6 MHZ
Type INFO Name PABELOKAN Frequency 129.8 MHZ
Type TWR Name TWR Frequency 118.75 MHZ

 AIRPORT NEAR NAVIGATION AIDS
Type VOR-DME Name Cengkareng Frequency 113600 KHZ
Type VOR-DME Name Jakarta Frequency 114600 KHZ



Powered by Virtual Airlines Manager [v2.6.2]